createdAt,value
2022-10-15T00:01:19.006Z,12.80
2022-10-15T00:04:04.774Z,10.23
2022-10-15T00:06:50.186Z,11.35
2022-10-15T00:09:35.635Z,11.38
2022-10-15T00:12:21.556Z,10.45
2022-10-15T00:15:07.463Z,9.98
2022-10-15T00:17:53.086Z,9.65
2022-10-15T00:20:41.823Z,9.27
2022-10-15T00:23:27.102Z,9.02
2022-10-15T00:26:22.017Z,7.63
2022-10-15T00:29:07.561Z,7.97
2022-10-15T00:31:53.070Z,10.65
2022-10-15T00:34:38.601Z,9.73
2022-10-15T00:37:25.128Z,9.88
2022-10-15T00:40:12.386Z,9.77
2022-10-15T00:42:57.587Z,9.65
2022-10-15T00:45:43.256Z,9.27
2022-10-15T00:48:31.727Z,8.32
2022-10-15T00:51:19.365Z,6.38
2022-10-15T00:54:05.042Z,7.30
2022-10-15T00:56:51.740Z,6.28
2022-10-15T00:59:43.129Z,6.37
2022-10-15T01:02:28.698Z,7.25
2022-10-15T01:05:16.572Z,10.73
2022-10-15T01:08:01.834Z,10.68
2022-10-15T01:10:59.502Z,12.00
2022-10-15T01:13:53.675Z,10.25
2022-10-15T01:16:46.934Z,9.52
2022-10-15T01:19:47.655Z,9.68
2022-10-15T01:22:42.460Z,10.32
2022-10-15T01:26:21.566Z,8.60
2022-10-15T01:29:33.367Z,7.63
2022-10-15T01:32:27.859Z,7.47
2022-10-15T01:35:22.958Z,6.50
2022-10-15T01:38:20.903Z,7.05
2022-10-15T01:41:32.354Z,6.80
2022-10-15T01:44:36.850Z,7.40
2022-10-15T01:47:53.429Z,6.43
2022-10-15T01:50:46.493Z,7.20
2022-10-15T01:53:34.729Z,6.25
2022-10-15T01:56:23.996Z,6.82
2022-10-15T01:59:10.509Z,7.35
2022-10-15T02:01:57.930Z,6.85
2022-10-15T02:04:44.328Z,6.65
2022-10-15T02:07:35.745Z,6.45
2022-10-15T02:10:36.275Z,6.47
2022-10-15T02:13:48.953Z,5.90
2022-10-15T02:17:02.886Z,6.20
2022-10-15T02:19:54.616Z,6.45
2022-10-15T02:22:48.700Z,6.20
2022-10-15T02:25:38.444Z,6.18
2022-10-15T02:28:26.626Z,5.95
2022-10-15T02:31:15.213Z,5.68
2022-10-15T02:34:06.163Z,6.03
2022-10-15T02:36:53.179Z,5.78
2022-10-15T02:39:38.555Z,5.37
2022-10-15T02:42:25.094Z,5.18
2022-10-15T02:45:10.930Z,5.90
2022-10-15T02:47:58.037Z,5.15
2022-10-15T02:50:43.658Z,5.50
2022-10-15T02:53:32.194Z,5.53
2022-10-15T02:56:18.075Z,5.57
2022-10-15T02:59:05.938Z,6.05
2022-10-15T03:01:51.921Z,5.20
2022-10-15T03:04:37.412Z,5.75
2022-10-15T03:07:23.236Z,5.75
2022-10-15T03:10:09.408Z,6.35
2022-10-15T03:12:55.169Z,5.50
2022-10-15T03:15:41.110Z,6.30
2022-10-15T03:18:26.931Z,5.82
2022-10-15T03:21:12.444Z,5.50
2022-10-15T03:23:59.236Z,6.65
2022-10-15T03:26:45.523Z,6.38
2022-10-15T03:29:31.041Z,6.70
2022-10-15T03:32:21.172Z,5.70
2022-10-15T03:35:08.027Z,7.30
2022-10-15T03:37:54.105Z,6.67
2022-10-15T03:40:39.716Z,7.75
2022-10-15T03:43:38.791Z,7.65
2022-10-15T03:46:28.392Z,8.90
2022-10-15T03:49:13.671Z,9.38
2022-10-15T03:51:59.215Z,10.20
2022-10-15T03:54:44.431Z,6.65
2022-10-15T03:57:32.455Z,7.00
2022-10-15T04:00:22.376Z,7.85
2022-10-15T04:03:11.786Z,6.75
2022-10-15T04:05:59.846Z,5.95
2022-10-15T04:08:49.208Z,6.70
2022-10-15T04:11:41.986Z,7.03
2022-10-15T04:14:28.007Z,6.60
2022-10-15T04:17:13.491Z,7.28
2022-10-15T04:19:59.444Z,7.28
2022-10-15T04:22:45.823Z,6.72
2022-10-15T04:25:32.903Z,6.35
2022-10-15T04:28:18.844Z,6.35
2022-10-15T04:31:05.763Z,6.35
2022-10-15T04:33:51.484Z,5.90
2022-10-15T04:36:37.210Z,5.80
2022-10-15T04:39:41.547Z,5.63
2022-10-15T04:42:31.638Z,5.38
2022-10-15T04:45:17.494Z,5.72
2022-10-15T04:48:02.876Z,5.45
2022-10-15T04:50:48.682Z,6.15
2022-10-15T04:53:38.776Z,6.63
2022-10-15T04:56:24.058Z,7.05
2022-10-15T04:59:10.061Z,8.10
2022-10-15T05:02:14.712Z,8.32
2022-10-15T05:05:00.474Z,8.70
2022-10-15T05:07:46.053Z,10.00
2022-10-15T05:10:32.107Z,7.20
2022-10-15T05:13:21.979Z,6.45
2022-10-15T05:16:10.312Z,6.47
2022-10-15T05:19:05.186Z,6.93
2022-10-15T05:21:51.182Z,6.72
2022-10-15T05:24:42.643Z,7.70
2022-10-15T05:27:43.626Z,8.15
2022-10-15T05:30:29.308Z,8.45
2022-10-15T05:33:16.335Z,8.73
2022-10-15T05:36:19.651Z,6.97
2022-10-15T05:39:14.310Z,7.28
2022-10-15T05:42:02.072Z,7.30
2022-10-15T05:44:55.655Z,7.07
2022-10-15T05:47:41.199Z,6.93
2022-10-15T05:50:35.725Z,6.72
2022-10-15T05:53:23.680Z,7.70
2022-10-15T05:56:17.237Z,6.90
2022-10-15T05:59:03.602Z,6.90
2022-10-15T06:01:49.224Z,6.80
2022-10-15T06:04:35.822Z,6.90
2022-10-15T06:07:21.969Z,7.60
2022-10-15T06:10:07.964Z,8.90
2022-10-15T06:12:53.713Z,7.63
2022-10-15T06:15:40.926Z,7.95
2022-10-15T06:18:27.688Z,7.95
2022-10-15T06:21:13.974Z,7.18
2022-10-15T06:23:59.560Z,6.95
2022-10-15T06:26:44.774Z,7.30
2022-10-15T06:29:30.259Z,8.40
2022-10-15T06:32:18.760Z,8.18
2022-10-15T06:35:04.296Z,8.65
2022-10-15T06:37:53.537Z,8.82
2022-10-15T06:40:39.910Z,7.77
2022-10-15T06:43:26.505Z,9.90
2022-10-15T06:46:13.190Z,8.10
2022-10-15T06:48:58.773Z,8.02
2022-10-15T06:51:44.265Z,7.47
2022-10-15T06:54:29.903Z,7.90
2022-10-15T06:57:15.436Z,7.13
2022-10-15T07:00:00.643Z,8.50
2022-10-15T07:02:45.921Z,8.98
2022-10-15T07:05:31.482Z,8.48
2022-10-15T07:08:19.272Z,9.50
2022-10-15T07:11:06.909Z,10.10
2022-10-15T07:13:52.335Z,8.90
2022-10-15T07:16:39.605Z,10.30
2022-10-15T07:19:24.939Z,11.43
2022-10-15T07:22:10.872Z,11.57
2022-10-15T07:24:56.477Z,11.77
2022-10-15T07:27:42.582Z,11.38
2022-10-15T07:30:28.512Z,8.35
2022-10-15T07:33:13.956Z,8.50
2022-10-15T07:36:12.964Z,10.98
2022-10-15T07:38:59.805Z,10.50
2022-10-15T07:41:46.669Z,9.30
2022-10-15T07:44:32.069Z,6.50
2022-10-15T07:47:18.073Z,6.82
2022-10-15T07:50:03.358Z,7.25
2022-10-15T07:52:48.553Z,8.27
2022-10-15T07:55:33.929Z,7.38
2022-10-15T07:58:20.177Z,6.60
2022-10-15T08:01:08.805Z,11.48
2022-10-15T08:03:54.255Z,12.27
2022-10-15T08:06:39.909Z,8.63
2022-10-15T08:09:25.326Z,9.18
2022-10-15T08:12:10.963Z,5.95
2022-10-15T08:14:56.516Z,5.65
2022-10-15T08:17:42.180Z,5.38
2022-10-15T08:20:28.140Z,5.00
2022-10-15T08:23:17.092Z,4.90
2022-10-15T08:26:03.243Z,4.72
2022-10-15T08:28:48.704Z,3.85
2022-10-15T08:31:34.296Z,4.40
2022-10-15T08:34:19.776Z,4.10
2022-10-15T08:37:05.336Z,5.07
2022-10-15T08:39:50.754Z,4.20
2022-10-15T08:42:42.588Z,3.88
2022-10-15T08:45:45.168Z,7.30
2022-10-15T08:48:36.601Z,4.72
2022-10-15T08:51:37.207Z,2.42
2022-10-15T08:54:22.503Z,0.93
2022-10-15T08:57:39.699Z,0.50
2022-10-15T09:00:45.779Z,1.90
2022-10-15T09:03:51.541Z,2.78
2022-10-15T09:06:38.953Z,33.72
2022-10-15T09:09:52.179Z,0.82
2022-10-15T09:12:58.533Z,0.40
2022-10-15T09:16:05.083Z,0.60
2022-10-15T09:18:55.043Z,7.65
2022-10-15T09:21:41.116Z,0.77
2022-10-15T09:24:29.993Z,0.52
2022-10-15T09:27:24.600Z,0.70
2022-10-15T09:30:35.682Z,0.60
2022-10-15T09:33:31.907Z,2.22
2022-10-15T09:36:35.832Z,0.50
2022-10-15T09:39:39.907Z,0.80
2022-10-15T09:42:36.263Z,1.88
2022-10-15T09:45:24.192Z,0.55
2022-10-15T09:48:19.510Z,0.50
2022-10-15T09:51:11.381Z,0.70
2022-10-15T09:54:10.301Z,17.27
2022-10-15T09:56:56.812Z,3.75
2022-10-15T09:59:57.604Z,3.10
2022-10-15T10:02:43.705Z,0.85
2022-10-15T10:05:32.810Z,10.02
2022-10-15T10:08:24.388Z,0.65
2022-10-15T10:11:13.015Z,0.82
2022-10-15T10:14:00.867Z,1.13
2022-10-15T10:17:07.980Z,0.68
2022-10-15T10:20:17.019Z,0.98
2022-10-15T10:26:09.048Z,0.88
2022-10-15T10:29:04.993Z,0.80
2022-10-15T10:32:00.788Z,0.70
2022-10-15T10:34:52.665Z,1.20
2022-10-15T10:37:44.547Z,0.70
2022-10-15T10:40:36.155Z,1.45
2022-10-15T10:43:29.961Z,0.52
2022-10-15T10:46:15.284Z,2.50
2022-10-15T10:49:05.429Z,2.67
2022-10-15T10:51:50.858Z,0.52
2022-10-15T10:54:36.941Z,0.60
2022-10-15T10:57:30.171Z,0.57
2022-10-15T11:00:39.790Z,1.40
2022-10-15T11:03:38.536Z,0.60
2022-10-15T11:06:30.183Z,2.78
2022-10-15T11:09:24.888Z,0.77
2022-10-15T11:12:29.519Z,2.55
2022-10-15T11:15:23.912Z,0.68
2022-10-15T11:18:31.716Z,0.80
2022-10-15T11:21:26.273Z,0.60
2022-10-15T11:24:48.313Z,1.00
2022-10-15T11:27:51.593Z,0.60
2022-10-15T11:30:49.566Z,3.60
2022-10-15T11:33:49.056Z,0.63
2022-10-15T11:36:52.739Z,0.70
2022-10-15T11:39:43.946Z,0.73
2022-10-15T11:42:50.477Z,0.80
2022-10-15T11:45:44.832Z,0.57
2022-10-15T11:48:45.916Z,0.50
2022-10-15T11:51:55.469Z,0.60
2022-10-15T11:55:08.001Z,7.07
2022-10-15T11:57:59.569Z,13.13
2022-10-15T12:00:56.565Z,6.45
2022-10-15T12:03:53.923Z,6.78
2022-10-15T12:06:47.781Z,1.40
2022-10-15T12:09:43.532Z,0.60
2022-10-15T12:12:40.373Z,0.85
2022-10-15T12:15:32.283Z,0.90
2022-10-15T12:18:28.006Z,0.80
2022-10-15T12:21:38.301Z,0.50
2022-10-15T12:24:54.728Z,3.03
2022-10-15T12:27:40.263Z,0.50
2022-10-15T12:30:31.348Z,2.67
2022-10-15T12:33:26.488Z,4.40
2022-10-15T12:36:30.584Z,6.28
2022-10-15T12:39:47.819Z,3.65
2022-10-15T12:42:33.907Z,9.82
2022-10-15T12:45:25.126Z,2.10
2022-10-15T12:48:20.623Z,0.80
2022-10-15T12:51:24.099Z,3.10
2022-10-15T12:54:46.731Z,1.38
2022-10-15T12:57:38.796Z,2.30
2022-10-15T13:00:32.352Z,0.93
2022-10-15T13:03:23.833Z,0.80
2022-10-15T13:06:21.461Z,1.10
2022-10-15T13:09:10.054Z,4.90
2022-10-15T13:11:59.108Z,3.72
2022-10-15T13:14:55.524Z,4.55
2022-10-15T13:17:40.948Z,0.90
2022-10-15T13:20:42.165Z,2.50
2022-10-15T13:23:32.413Z,0.77
2022-10-15T13:26:25.630Z,1.52
2022-10-15T13:29:20.456Z,0.90
2022-10-15T13:32:15.075Z,0.95
2022-10-15T13:35:02.449Z,0.60
2022-10-15T13:37:49.387Z,1.10
2022-10-15T13:40:34.980Z,2.15
2022-10-15T13:43:23.152Z,5.07
2022-10-15T13:46:15.632Z,2.50
2022-10-15T13:49:09.424Z,1.45
2022-10-15T13:51:55.192Z,1.05
2022-10-15T13:54:46.081Z,0.90
2022-10-15T14:26:24.321Z,5.95
2022-10-15T14:29:27.827Z,6.18
2022-10-15T14:32:23.369Z,2.10
2022-10-15T14:35:24.703Z,5.38
2022-10-15T14:38:10.036Z,1.80
2022-10-15T14:41:20.805Z,2.63
2022-10-15T14:44:12.998Z,2.40
2022-10-15T14:47:03.489Z,1.08
2022-10-15T14:50:27.644Z,1.40
2022-10-15T14:53:26.697Z,2.90
2022-10-15T14:56:19.412Z,1.38
2022-10-15T14:59:06.827Z,1.40
2022-10-15T15:02:00.026Z,1.23
2022-10-15T15:05:18.527Z,1.38
2022-10-15T15:08:09.714Z,1.20
2022-10-15T15:10:58.028Z,1.20
2022-10-15T15:13:45.286Z,1.17
2022-10-15T15:16:30.780Z,1.60
2022-10-15T15:19:16.201Z,3.35
2022-10-15T15:22:01.633Z,12.20
2022-10-15T15:24:47.272Z,1.92
2022-10-15T15:27:37.579Z,1.50
2022-10-15T15:30:26.625Z,2.20
2022-10-15T15:33:16.133Z,1.70
2022-10-15T15:36:08.075Z,2.13
2022-10-15T15:38:58.646Z,1.83
2022-10-15T15:41:44.130Z,2.25
2022-10-15T15:44:29.483Z,2.78
2022-10-15T15:47:15.689Z,2.00
2022-10-15T15:50:01.390Z,2.15
2022-10-15T15:52:47.424Z,2.00
2022-10-15T15:55:33.139Z,1.75
2022-10-15T15:58:18.509Z,4.82
2022-10-15T16:01:04.039Z,2.03
2022-10-15T16:03:49.527Z,2.55
2022-10-15T16:06:34.984Z,1.65
2022-10-15T16:09:22.690Z,1.83
2022-10-15T16:12:08.043Z,1.60
2022-10-15T16:14:53.474Z,2.00
2022-10-15T16:17:38.944Z,2.40
2022-10-15T16:20:24.387Z,2.47
2022-10-15T16:23:09.653Z,5.03
2022-10-15T16:25:57.477Z,1.73
2022-10-15T16:28:43.179Z,1.60
2022-10-15T16:31:29.575Z,1.75
2022-10-15T16:34:15.950Z,1.90
2022-10-15T16:37:01.573Z,1.73
2022-10-15T16:39:47.166Z,1.05
2022-10-15T16:42:32.541Z,1.33
2022-10-15T16:45:18.057Z,3.47
2022-10-15T16:48:03.609Z,1.55
2022-10-15T16:51:05.833Z,2.45
2022-10-15T16:53:52.063Z,3.03
2022-10-15T16:56:38.228Z,4.22
2022-10-15T16:59:23.542Z,3.92
2022-10-15T17:02:09.886Z,4.05
2022-10-15T17:04:55.687Z,3.83
2022-10-15T17:07:41.313Z,2.55
2022-10-15T17:10:27.252Z,2.60
2022-10-15T17:13:12.903Z,2.85
2022-10-15T17:16:11.128Z,2.53
2022-10-15T17:18:57.429Z,2.65
2022-10-15T17:21:46.136Z,3.55
2022-10-15T17:24:32.275Z,3.03
2022-10-15T17:27:17.821Z,3.38
2022-10-15T17:30:03.440Z,3.25
2022-10-15T17:32:49.045Z,3.20
2022-10-15T17:35:37.725Z,3.47
2022-10-15T17:38:23.254Z,3.08
2022-10-15T17:41:20.429Z,2.90
2022-10-15T17:44:06.249Z,3.38
2022-10-15T17:46:52.721Z,2.90
2022-10-15T17:49:45.176Z,2.92
2022-10-15T17:52:31.386Z,2.50
2022-10-15T17:55:17.262Z,2.80
2022-10-15T18:32:46.561Z,5.05
2022-10-15T18:35:35.585Z,3.90
2022-10-15T18:38:21.045Z,4.30
2022-10-15T18:41:18.875Z,3.83
2022-10-15T18:44:16.920Z,3.35
2022-10-15T18:47:02.191Z,3.63
2022-10-15T18:49:47.812Z,3.50
2022-10-15T18:52:39.789Z,3.88
2022-10-15T18:55:25.763Z,8.63
2022-10-15T18:58:11.494Z,11.00
2022-10-15T19:00:58.404Z,7.78
2022-10-15T19:03:43.470Z,7.78
2022-10-15T19:06:34.459Z,6.85
2022-10-15T19:09:23.264Z,5.13
2022-10-15T19:12:08.934Z,6.50
2022-10-15T19:14:54.537Z,4.95
2022-10-15T19:17:40.105Z,3.53
2022-10-15T19:20:25.792Z,3.03
2022-10-15T19:23:11.251Z,4.78
2022-10-15T19:25:57.888Z,6.38
2022-10-15T19:28:43.294Z,6.38
2022-10-15T19:31:31.792Z,7.50
2022-10-15T19:34:17.482Z,7.32
2022-10-15T19:37:02.957Z,6.65
2022-10-15T19:39:48.562Z,6.72
2022-10-15T19:42:34.462Z,6.90
2022-10-15T19:45:20.274Z,7.38
2022-10-15T19:48:06.476Z,7.32
2022-10-15T19:50:51.760Z,6.15
2022-10-15T19:53:37.406Z,5.15
2022-10-15T19:56:22.989Z,8.07
2022-10-15T19:59:10.132Z,8.23
2022-10-15T20:01:55.721Z,5.97
2022-10-15T20:04:41.191Z,9.82
2022-10-15T20:07:27.009Z,5.55
2022-10-15T20:10:12.925Z,4.03
2022-10-15T20:12:58.093Z,4.20
2022-10-15T20:15:48.691Z,6.28
2022-10-15T20:18:34.998Z,5.07
2022-10-15T20:21:20.509Z,4.25
2022-10-15T20:24:06.010Z,4.85
2022-10-15T20:26:51.527Z,4.05
2022-10-15T20:29:37.233Z,4.68
2022-10-15T20:32:34.426Z,5.22
2022-10-15T20:35:21.962Z,5.97
2022-10-15T20:38:07.921Z,6.97
2022-10-15T20:40:53.558Z,7.25
2022-10-15T20:43:39.188Z,7.90
2022-10-15T20:46:32.842Z,8.50
2022-10-15T20:49:22.914Z,8.55
2022-10-15T20:52:08.939Z,7.75
2022-10-15T20:54:55.110Z,7.30
2022-10-15T20:57:41.425Z,5.85
2022-10-15T21:00:26.647Z,6.18
2022-10-15T21:03:12.207Z,6.05
2022-10-15T21:05:58.113Z,5.60
2022-10-15T21:08:43.666Z,5.30
2022-10-15T21:11:29.477Z,5.50
2022-10-15T21:14:15.665Z,4.50
2022-10-15T21:17:00.938Z,4.35
2022-10-15T21:19:50.344Z,4.82
2022-10-15T21:22:38.488Z,4.85
2022-10-15T21:25:23.842Z,4.93
2022-10-15T21:28:09.153Z,4.45
2022-10-15T21:30:54.844Z,6.03
2022-10-15T21:33:40.526Z,7.15
2022-10-15T21:36:28.069Z,7.22
2022-10-15T21:39:13.608Z,7.38
2022-10-15T21:41:59.164Z,7.47
2022-10-15T21:44:44.839Z,7.32
2022-10-15T21:47:32.187Z,9.85
2022-10-15T21:50:17.696Z,7.90
2022-10-15T21:53:03.930Z,7.53
2022-10-15T21:55:53.957Z,7.57
2022-10-15T21:58:41.315Z,8.07
2022-10-15T22:01:33.147Z,11.23
2022-10-15T22:04:18.906Z,12.25
2022-10-15T22:07:06.641Z,9.55
2022-10-15T22:12:37.799Z,10.20
2022-10-15T22:15:23.183Z,10.27
2022-10-15T22:18:08.622Z,7.70
2022-10-15T22:20:54.215Z,7.88
2022-10-15T22:23:39.612Z,8.60
2022-10-15T22:26:28.584Z,8.90
2022-10-15T22:29:26.314Z,9.80
2022-10-15T22:32:11.604Z,7.50
2022-10-15T22:34:57.959Z,8.25
2022-10-15T22:37:43.742Z,8.05
2022-10-15T22:40:28.802Z,7.72
2022-10-15T22:43:14.378Z,7.20
2022-10-15T22:46:00.507Z,7.90
2022-10-15T22:48:45.732Z,8.15
2022-10-15T22:51:31.895Z,8.02
2022-10-15T22:54:18.868Z,7.72
2022-10-15T22:57:04.623Z,7.60
2022-10-15T22:59:55.860Z,7.55
2022-10-15T23:02:43.906Z,8.27
2022-10-15T23:05:29.319Z,7.82
2022-10-15T23:08:14.770Z,7.65
2022-10-15T23:11:09.340Z,7.80
2022-10-15T23:14:07.584Z,9.57
2022-10-15T23:16:52.939Z,12.30
2022-10-15T23:19:38.325Z,11.05
2022-10-15T23:22:24.262Z,10.77
2022-10-15T23:25:09.904Z,10.70
2022-10-15T23:27:55.437Z,9.10
2022-10-15T23:30:40.937Z,8.38
2022-10-15T23:33:26.414Z,8.43
2022-10-15T23:36:12.610Z,8.63
2022-10-15T23:39:00.638Z,8.32
2022-10-15T23:41:46.288Z,5.18
2022-10-15T23:44:32.267Z,4.47
2022-10-15T23:47:17.804Z,2.75
2022-10-15T23:50:03.539Z,3.70
2022-10-15T23:52:48.706Z,2.92
2022-10-15T23:55:39.290Z,3.85
2022-10-15T23:58:24.963Z,2.60
